createdAt,value
2018-01-05T00:00:14.403Z,7.14
2018-01-05T00:01:19.107Z,7.13
2018-01-05T00:02:23.881Z,7.08
2018-01-05T00:03:28.945Z,7.07
2018-01-05T00:04:33.725Z,7.03
2018-01-05T00:05:38.407Z,7.08
2018-01-05T00:06:43.153Z,7.11
2018-01-05T00:07:48.001Z,7.11
2018-01-05T00:08:52.859Z,7.04
2018-01-05T00:09:57.910Z,7.02
2018-01-05T00:11:02.754Z,7.05
2018-01-05T00:12:07.460Z,7.07
2018-01-05T00:13:12.178Z,7.11
2018-01-05T00:14:16.952Z,7.06
2018-01-05T00:15:21.682Z,7.03
2018-01-05T00:16:26.686Z,7.00
2018-01-05T00:17:31.347Z,7.01
2018-01-05T00:18:35.982Z,7.05
2018-01-05T00:19:40.822Z,7.02
2018-01-05T00:20:45.631Z,6.98
2018-01-05T00:21:50.388Z,6.94
2018-01-05T00:22:55.496Z,7.00
2018-01-05T00:24:00.172Z,7.05
2018-01-05T00:25:04.915Z,6.99
2018-01-05T00:26:09.670Z,6.99
2018-01-05T00:27:14.394Z,6.94
2018-01-05T00:28:19.342Z,6.94
2018-01-05T00:29:24.342Z,6.99
2018-01-05T00:30:29.054Z,7.03
2018-01-05T00:31:33.836Z,6.99
2018-01-05T00:32:38.556Z,6.93
2018-01-05T00:33:43.245Z,6.92
2018-01-05T00:34:48.056Z,6.91
2018-01-05T00:35:53.107Z,6.92
2018-01-05T00:36:57.897Z,6.80
2018-01-05T00:38:02.726Z,6.85
2018-01-05T00:39:07.543Z,6.88
2018-01-05T00:40:12.157Z,6.93
2018-01-05T00:41:16.890Z,6.85
2018-01-05T00:42:22.848Z,6.86
2018-01-05T00:43:28.612Z,6.84
2018-01-05T00:44:33.391Z,6.82
2018-01-05T00:45:38.151Z,6.82
2018-01-05T00:46:43.081Z,6.83
2018-01-05T00:47:47.859Z,6.83
2018-01-05T00:48:53.497Z,6.83
2018-01-05T00:49:58.251Z,6.86
2018-01-05T00:51:03.208Z,6.84
2018-01-05T00:52:07.991Z,6.81
2018-01-05T00:53:12.823Z,6.76
2018-01-05T00:54:17.611Z,6.76
2018-01-05T00:55:22.586Z,6.78
2018-01-05T00:56:27.440Z,6.75
2018-01-05T00:57:32.263Z,6.78
2018-01-05T00:58:37.150Z,6.76
2018-01-05T00:59:41.958Z,6.78
2018-01-05T01:00:46.885Z,6.79
2018-01-05T01:01:52.375Z,6.79
2018-01-05T01:02:57.288Z,6.70
2018-01-05T01:04:02.055Z,6.73
2018-01-05T01:05:06.939Z,6.77
2018-01-05T01:06:11.687Z,6.70
2018-01-05T01:07:16.559Z,6.69
2018-01-05T01:08:21.797Z,6.67
2018-01-05T01:09:26.997Z,6.68
2018-01-05T01:10:31.780Z,6.64
2018-01-05T01:11:36.667Z,6.61
2018-01-05T01:12:41.753Z,6.56
2018-01-05T01:13:46.639Z,6.58
2018-01-05T01:14:51.654Z,6.65
2018-01-05T01:15:56.275Z,6.62
2018-01-05T01:17:00.870Z,6.60
2018-01-05T01:18:05.496Z,6.56
2018-01-05T01:19:10.260Z,6.57
2018-01-05T01:20:15.003Z,6.55
2018-01-05T01:21:20.067Z,6.55
2018-01-05T01:22:25.898Z,6.60
2018-01-05T01:23:30.627Z,6.63
2018-01-05T01:24:35.380Z,6.55
2018-01-05T01:25:40.168Z,6.52
2018-01-05T01:26:45.015Z,6.57
2018-01-05T01:27:50.055Z,6.57
2018-01-05T01:28:54.653Z,6.64
2018-01-05T01:29:59.302Z,6.63
2018-01-05T01:31:03.935Z,6.59
2018-01-05T01:32:08.836Z,6.56
2018-01-05T01:33:13.488Z,6.59
2018-01-05T01:34:18.528Z,6.59
2018-01-05T01:35:23.185Z,6.58
2018-01-05T01:36:27.803Z,6.57
2018-01-05T01:37:32.391Z,6.58
2018-01-05T01:38:37.001Z,6.56
2018-01-05T01:39:41.614Z,6.63
2018-01-05T01:40:46.472Z,6.53
2018-01-05T01:41:51.116Z,6.60
2018-01-05T01:42:56.516Z,6.62
2018-01-05T01:44:01.836Z,6.56
2018-01-05T01:45:06.351Z,6.60
2018-01-05T01:46:11.587Z,6.65
2018-01-05T01:47:16.270Z,6.62
2018-01-05T01:48:20.861Z,6.62
2018-01-05T01:49:25.593Z,6.56
2018-01-05T01:50:30.256Z,6.53
2018-01-05T01:51:34.920Z,6.53
2018-01-05T01:52:39.888Z,6.57
2018-01-05T01:53:44.562Z,6.58
2018-01-05T01:54:49.252Z,6.63
2018-01-05T01:55:53.824Z,6.56
2018-01-05T01:56:58.300Z,6.51
2018-01-05T01:58:03.651Z,6.52
2018-01-05T01:59:08.371Z,6.47
2018-01-05T02:00:12.796Z,6.52
2018-01-05T02:01:17.308Z,6.49
2018-01-05T02:02:21.761Z,6.53
2018-01-05T02:03:26.492Z,6.51
2018-01-05T02:04:31.010Z,6.50
2018-01-05T02:05:35.966Z,6.53
2018-01-05T02:06:40.671Z,6.54
2018-01-05T02:07:45.381Z,6.50
2018-01-05T02:08:50.267Z,6.56
2018-01-05T02:09:54.875Z,6.51
2018-01-05T02:10:59.413Z,6.53
2018-01-05T02:12:04.374Z,6.48
2018-01-05T02:13:09.034Z,6.44
2018-01-05T02:14:13.742Z,6.48
2018-01-05T02:15:18.446Z,6.40
2018-01-05T02:16:23.145Z,6.41
2018-01-05T02:17:27.792Z,6.50
2018-01-05T02:18:33.548Z,6.48
2018-01-05T02:19:38.284Z,6.47
2018-01-05T02:20:43.002Z,6.45
2018-01-05T02:21:47.692Z,6.40
2018-01-05T02:22:52.512Z,6.45
2018-01-05T02:23:58.290Z,6.45
2018-01-05T02:25:03.328Z,6.49
2018-01-05T02:26:08.092Z,6.43
2018-01-05T02:27:12.873Z,6.39
2018-01-05T02:28:17.646Z,6.39
2018-01-05T02:29:22.366Z,6.34
2018-01-05T02:30:27.129Z,6.39
2018-01-05T02:31:31.858Z,6.41
2018-01-05T02:32:36.675Z,6.44
2018-01-05T02:33:41.496Z,6.37
2018-01-05T02:34:46.321Z,6.32
2018-01-05T02:35:51.140Z,6.38
2018-01-05T02:36:55.892Z,6.38
2018-01-05T02:38:00.944Z,6.33
2018-01-05T02:39:05.911Z,6.32
2018-01-05T02:40:10.675Z,6.37
2018-01-05T02:41:15.429Z,6.36
2018-01-05T02:42:20.188Z,6.38
2018-01-05T02:43:24.811Z,6.41
2018-01-05T02:44:30.754Z,6.40
2018-01-05T02:45:35.501Z,6.42
2018-01-05T02:46:40.306Z,6.40
2018-01-05T02:47:45.088Z,6.40
2018-01-05T02:48:49.842Z,6.37
2018-01-05T02:49:54.630Z,6.34
2018-01-05T02:50:59.767Z,6.38
2018-01-05T02:52:04.519Z,6.37
2018-01-05T02:53:09.302Z,6.37
2018-01-05T02:54:14.091Z,6.35
2018-01-05T02:55:18.972Z,6.34
2018-01-05T02:56:23.735Z,6.36
2018-01-05T02:57:28.926Z,6.35
2018-01-05T02:58:34.548Z,6.38
2018-01-05T02:59:39.365Z,6.36
2018-01-05T03:00:44.133Z,6.29
2018-01-05T03:01:48.924Z,6.35
2018-01-05T03:02:53.722Z,6.35
2018-01-05T03:03:58.863Z,6.37
2018-01-05T03:05:03.621Z,6.36
2018-01-05T03:06:08.357Z,6.38
2018-01-05T03:07:13.027Z,6.40
2018-01-05T03:08:18.367Z,6.42
2018-01-05T03:09:23.686Z,6.40
2018-01-05T03:10:28.688Z,6.41
2018-01-05T03:11:33.436Z,6.42
2018-01-05T03:12:38.246Z,6.39
2018-01-05T03:13:43.041Z,6.42
2018-01-05T03:14:47.773Z,6.41
2018-01-05T03:15:52.588Z,6.42
2018-01-05T03:16:57.669Z,6.43
2018-01-05T03:18:02.433Z,6.45
2018-01-05T03:19:07.190Z,6.45
2018-01-05T03:20:11.980Z,6.49
2018-01-05T03:21:16.713Z,6.51
2018-01-05T03:22:21.477Z,6.47
2018-01-05T03:23:26.517Z,6.47
2018-01-05T03:24:31.269Z,6.49
2018-01-05T03:25:36.007Z,6.49
2018-01-05T03:26:40.764Z,6.48
2018-01-05T03:27:45.514Z,6.51
2018-01-05T03:28:50.282Z,6.51
2018-01-05T03:29:55.296Z,6.52
2018-01-05T03:30:59.985Z,6.50
2018-01-05T03:32:04.722Z,6.47
2018-01-05T03:33:09.482Z,6.49
2018-01-05T03:34:14.263Z,6.45
2018-01-05T03:35:19.027Z,6.48
2018-01-05T03:36:24.071Z,6.45
2018-01-05T03:37:28.724Z,6.44
2018-01-05T03:38:33.677Z,6.40
2018-01-05T03:39:38.253Z,6.37
2018-01-05T03:40:42.871Z,6.35
2018-01-05T03:41:47.481Z,6.33
2018-01-05T03:42:52.385Z,6.20
2018-01-05T03:43:57.818Z,6.19
2018-01-05T03:45:02.324Z,6.14
2018-01-05T03:46:06.987Z,6.14
2018-01-05T03:47:11.642Z,6.13
2018-01-05T03:48:16.291Z,6.10
2018-01-05T03:49:21.320Z,6.08
2018-01-05T03:50:26.035Z,6.02
2018-01-05T03:51:30.841Z,6.01
2018-01-05T03:52:36.266Z,5.95
2018-01-05T03:53:41.377Z,5.89
2018-01-05T03:54:46.121Z,5.82
2018-01-05T03:55:51.209Z,5.73
2018-01-05T03:56:56.226Z,5.68
2018-01-05T03:58:00.992Z,5.61
2018-01-05T03:59:05.791Z,5.56
2018-01-05T04:00:10.650Z,5.48
2018-01-05T04:01:15.421Z,5.48
2018-01-05T04:02:20.497Z,5.48
2018-01-05T04:03:25.217Z,5.48
2018-01-05T04:04:29.947Z,5.43
2018-01-05T04:05:34.570Z,5.41
2018-01-05T04:06:39.174Z,5.38
2018-01-05T04:07:43.789Z,5.42
2018-01-05T04:08:48.752Z,5.34
2018-01-05T04:09:53.526Z,5.33
2018-01-05T04:10:58.220Z,5.32
2018-01-05T04:12:02.980Z,5.30
2018-01-05T04:13:07.744Z,5.31
2018-01-05T04:14:12.578Z,5.29
2018-01-05T04:15:17.610Z,5.31
2018-01-05T04:16:22.980Z,5.30
2018-01-05T04:17:27.780Z,5.31
2018-01-05T04:18:32.592Z,5.27
2018-01-05T04:19:38.108Z,5.32
2018-01-05T04:20:42.739Z,5.29
2018-01-05T04:21:47.915Z,5.24
2018-01-05T04:22:52.519Z,5.27
2018-01-05T04:23:57.149Z,5.26
2018-01-05T04:25:01.950Z,5.20
2018-01-05T04:26:06.931Z,5.22
2018-01-05T04:27:11.733Z,5.25
2018-01-05T04:28:16.819Z,5.26
2018-01-05T04:29:21.555Z,5.26
2018-01-05T04:30:26.384Z,5.25
2018-01-05T04:31:31.207Z,5.24
2018-01-05T04:32:36.009Z,5.26
2018-01-05T04:33:40.778Z,5.25
2018-01-05T04:34:45.814Z,5.20
2018-01-05T04:35:50.584Z,5.21
2018-01-05T04:36:55.345Z,5.23
2018-01-05T04:38:00.161Z,5.23
2018-01-05T04:39:05.179Z,5.20
2018-01-05T04:40:09.935Z,5.20
2018-01-05T04:41:14.987Z,5.21
2018-01-05T04:42:20.423Z,5.18
2018-01-05T04:43:25.276Z,5.21
2018-01-05T04:44:30.072Z,5.23
2018-01-05T04:45:34.880Z,5.22
2018-01-05T04:46:39.720Z,5.30
2018-01-05T04:47:44.785Z,5.31
2018-01-05T04:48:49.559Z,5.32
2018-01-05T04:49:54.321Z,5.28
2018-01-05T04:50:58.932Z,5.27
2018-01-05T04:52:03.603Z,5.27
2018-01-05T04:53:08.284Z,5.25
2018-01-05T04:54:13.106Z,5.26
2018-01-05T04:55:17.919Z,5.26
2018-01-05T04:56:22.738Z,5.35
2018-01-05T04:57:28.187Z,5.36
2018-01-05T04:58:32.974Z,5.42
2018-01-05T04:59:37.794Z,5.52
2018-01-05T05:00:42.459Z,5.47
2018-01-05T05:01:47.259Z,5.37
2018-01-05T05:02:51.879Z,5.37
2018-01-05T05:03:56.559Z,5.44
2018-01-05T05:05:01.600Z,5.43
2018-01-05T05:06:06.369Z,5.44
2018-01-05T05:07:12.520Z,5.54
2018-01-05T05:08:17.249Z,5.54
2018-01-05T05:09:22.010Z,5.53
2018-01-05T05:10:26.805Z,5.53
2018-01-05T05:11:31.837Z,5.58
2018-01-05T05:12:36.582Z,5.69
2018-01-05T05:13:41.351Z,5.67
2018-01-05T05:14:46.051Z,5.71
2018-01-05T05:15:51.037Z,5.74
2018-01-05T05:16:55.841Z,5.72
2018-01-05T05:18:00.919Z,5.81
2018-01-05T05:19:05.674Z,5.86
2018-01-05T05:20:10.468Z,5.90
2018-01-05T05:21:15.200Z,5.97
2018-01-05T05:22:19.917Z,5.98
2018-01-05T05:23:24.685Z,5.97
2018-01-05T05:24:29.740Z,6.00
2018-01-05T05:25:34.482Z,5.98
2018-01-05T05:26:39.237Z,5.98
2018-01-05T05:27:47.891Z,5.99
2018-01-05T05:28:54.796Z,6.02
2018-01-05T05:30:01.375Z,6.08
2018-01-05T05:31:06.866Z,6.01
2018-01-05T05:32:11.793Z,6.04
2018-01-05T05:33:16.533Z,6.10
2018-01-05T05:34:21.249Z,6.07
2018-01-05T05:35:26.026Z,6.08
2018-01-05T05:36:30.666Z,6.09
2018-01-05T05:37:35.504Z,6.14
2018-01-05T05:38:40.040Z,6.13
2018-01-05T05:39:44.591Z,6.19
2018-01-05T05:40:49.148Z,6.27
2018-01-05T05:41:53.808Z,6.27
2018-01-05T05:42:59.062Z,6.28
2018-01-05T05:44:04.034Z,6.24
2018-01-05T05:45:08.671Z,6.27
2018-01-05T05:46:13.288Z,6.25
2018-01-05T05:47:17.886Z,6.37
2018-01-05T05:48:22.543Z,6.39
2018-01-05T05:49:28.169Z,6.36
2018-01-05T05:50:33.195Z,6.39
2018-01-05T05:51:37.861Z,6.39
2018-01-05T05:52:42.660Z,6.34
2018-01-05T05:53:47.469Z,6.33
2018-01-05T05:54:52.259Z,6.35
2018-01-05T05:55:57.060Z,6.32
2018-01-05T05:57:02.148Z,6.35
2018-01-05T05:58:06.861Z,6.40
2018-01-05T05:59:11.577Z,6.42
2018-01-05T06:00:16.338Z,6.48
2018-01-05T06:01:21.071Z,6.52
2018-01-05T06:02:25.950Z,6.57
2018-01-05T06:03:31.135Z,6.58
2018-01-05T06:04:35.894Z,6.58
2018-01-05T06:05:40.698Z,6.54
2018-01-05T06:06:46.916Z,6.61
2018-01-05T06:07:51.643Z,6.62
2018-01-05T06:08:56.340Z,6.67
2018-01-05T06:10:01.328Z,6.67
2018-01-05T06:11:06.208Z,6.68
2018-01-05T06:12:11.036Z,6.70
2018-01-05T06:13:15.859Z,6.66
2018-01-05T06:14:20.671Z,6.64
2018-01-05T06:15:25.482Z,6.65
2018-01-05T06:16:30.624Z,6.69
2018-01-05T06:17:35.425Z,6.73
2018-01-05T06:18:40.217Z,6.71
2018-01-05T06:19:44.995Z,6.71
2018-01-05T06:20:49.820Z,6.76
2018-01-05T06:21:54.665Z,6.78
2018-01-05T06:22:59.719Z,6.71
2018-01-05T06:24:05.021Z,6.72
2018-01-05T06:25:09.829Z,6.63
2018-01-05T06:26:14.596Z,6.72
2018-01-05T06:27:19.399Z,6.71
2018-01-05T06:28:23.999Z,6.71
2018-01-05T06:29:29.142Z,6.62
2018-01-05T06:30:33.933Z,6.64
2018-01-05T06:31:38.769Z,6.64
2018-01-05T06:32:43.554Z,6.65
2018-01-05T06:33:49.748Z,6.61
2018-01-05T06:34:54.497Z,6.55
2018-01-05T06:35:59.443Z,6.51
2018-01-05T06:37:04.065Z,6.57
2018-01-05T06:38:09.122Z,6.58
2018-01-05T06:39:13.727Z,6.53
2018-01-05T06:40:18.314Z,6.51
2018-01-05T06:41:23.100Z,6.51
2018-01-05T06:42:28.205Z,6.49
2018-01-05T06:43:32.868Z,6.52
2018-01-05T06:44:37.690Z,6.46
2018-01-05T06:45:42.508Z,6.48
2018-01-05T06:46:47.446Z,6.44
2018-01-05T06:47:52.261Z,6.42
2018-01-05T06:48:57.429Z,6.48
2018-01-05T06:50:02.310Z,6.45
2018-01-05T06:51:07.159Z,6.50
2018-01-05T06:52:11.982Z,6.44
2018-01-05T06:53:16.821Z,6.45
2018-01-05T06:54:21.600Z,6.39
2018-01-05T06:55:26.754Z,6.48
2018-01-05T06:56:32.131Z,6.50
2018-01-05T06:57:36.940Z,6.51
2018-01-05T06:58:41.832Z,6.47
2018-01-05T06:59:46.608Z,6.54
2018-01-05T07:00:51.434Z,6.55
2018-01-05T07:01:56.641Z,6.51
2018-01-05T07:03:01.396Z,6.62
2018-01-05T07:04:06.162Z,6.67
2018-01-05T07:05:10.913Z,6.58
2018-01-05T07:06:15.746Z,6.61
2018-01-05T07:07:20.526Z,6.67
2018-01-05T07:08:25.935Z,6.66
2018-01-05T07:09:30.782Z,6.63
2018-01-05T07:10:35.613Z,6.66
2018-01-05T07:11:40.392Z,6.67
2018-01-05T07:12:45.177Z,6.66
2018-01-05T07:13:49.982Z,6.66
2018-01-05T07:14:55.306Z,6.70
2018-01-05T07:16:00.130Z,6.70
2018-01-05T07:17:05.552Z,6.71
2018-01-05T07:18:10.423Z,6.72
2018-01-05T07:19:15.063Z,6.72
2018-01-05T07:20:19.719Z,6.78
2018-01-05T07:21:24.783Z,6.75
2018-01-05T07:22:29.437Z,6.81
2018-01-05T07:23:34.248Z,6.77
2018-01-05T07:24:38.879Z,6.78
2018-01-05T07:25:43.952Z,6.79
2018-01-05T07:26:48.755Z,6.80
2018-01-05T07:27:53.912Z,6.79
2018-01-05T07:28:58.552Z,6.87
2018-01-05T07:30:03.457Z,6.90
2018-01-05T07:31:08.298Z,6.88
2018-01-05T07:32:13.102Z,6.90
2018-01-05T07:33:17.941Z,6.81
2018-01-05T07:34:23.029Z,6.73
2018-01-05T07:35:27.835Z,6.75
2018-01-05T07:36:34.159Z,6.77
2018-01-05T07:37:39.801Z,6.88
2018-01-05T07:38:44.577Z,6.94
2018-01-05T07:39:49.496Z,6.89
2018-01-05T07:40:54.304Z,6.91
2018-01-05T07:41:59.145Z,6.99
2018-01-05T07:43:03.996Z,7.05
2018-01-05T07:44:08.776Z,7.04
2018-01-05T07:45:13.522Z,7.00
2018-01-05T07:46:18.639Z,6.96
2018-01-05T07:47:23.411Z,7.03
2018-01-05T07:48:28.154Z,7.03
2018-01-05T07:49:32.961Z,7.00
2018-01-05T07:50:37.725Z,7.05
2018-01-05T07:51:42.497Z,7.00
2018-01-05T07:52:47.674Z,7.09
2018-01-05T07:53:52.494Z,7.03
2018-01-05T07:54:57.334Z,7.12
2018-01-05T07:56:02.742Z,7.09
2018-01-05T07:57:07.513Z,7.09
2018-01-05T07:58:12.292Z,7.03
2018-01-05T07:59:17.352Z,7.10
2018-01-05T08:00:22.160Z,7.14
2018-01-05T08:01:26.954Z,7.10
2018-01-05T08:02:31.865Z,7.18
2018-01-05T08:03:36.633Z,7.19
2018-01-05T08:04:41.683Z,7.10
2018-01-05T08:05:47.421Z,7.16
2018-01-05T08:06:52.194Z,7.14
2018-01-05T08:07:57.030Z,7.09
2018-01-05T08:09:01.699Z,7.08
2018-01-05T08:10:06.442Z,7.13
2018-01-05T08:11:11.443Z,7.09
2018-01-05T08:12:16.312Z,7.13
2018-01-05T08:13:21.114Z,7.09
2018-01-05T08:14:25.921Z,7.10
2018-01-05T08:15:30.631Z,7.07
2018-01-05T08:16:35.685Z,7.11
2018-01-05T08:17:40.964Z,7.14
2018-01-05T08:18:46.046Z,7.17
2018-01-05T08:19:50.806Z,7.17
2018-01-05T08:20:55.952Z,7.19
2018-01-05T08:22:00.702Z,7.17
2018-01-05T08:23:05.514Z,7.14
2018-01-05T08:24:10.619Z,7.20
2018-01-05T08:25:15.467Z,7.21
2018-01-05T08:26:20.305Z,7.27
2018-01-05T08:27:26.062Z,7.25
2018-01-05T08:28:31.633Z,7.27
2018-01-05T08:29:36.470Z,7.26
2018-01-05T08:30:41.572Z,7.27
2018-01-05T08:31:46.440Z,7.28
2018-01-05T08:32:51.225Z,7.31
2018-01-05T08:33:56.034Z,7.27
2018-01-05T08:35:00.834Z,7.29
2018-01-05T08:36:05.617Z,7.34
2018-01-05T08:37:10.944Z,7.36
2018-01-05T08:38:15.688Z,7.33
2018-01-05T08:39:20.473Z,7.31
2018-01-05T08:40:25.230Z,7.32
2018-01-05T08:41:29.945Z,7.37
2018-01-05T08:42:34.709Z,7.29
2018-01-05T08:43:39.806Z,7.30
2018-01-05T08:44:44.590Z,7.30
2018-01-05T08:45:49.426Z,7.33
2018-01-05T08:46:54.255Z,7.33
2018-01-05T08:47:59.008Z,7.31
2018-01-05T08:49:03.738Z,7.35
2018-01-05T08:50:08.856Z,7.35
2018-01-05T08:51:13.633Z,7.38
2018-01-05T08:52:18.468Z,7.29
2018-01-05T08:53:23.292Z,7.35
2018-01-05T08:54:28.048Z,7.29
2018-01-05T08:55:32.813Z,7.31
2018-01-05T08:56:37.858Z,7.26
2018-01-05T08:57:42.651Z,7.38
2018-01-05T08:58:49.499Z,7.36
2018-01-05T08:59:54.300Z,7.35
2018-01-05T09:00:59.498Z,7.30
2018-01-05T09:02:04.260Z,7.30
2018-01-05T09:03:09.494Z,7.31
2018-01-05T09:04:14.421Z,7.25
2018-01-05T09:05:19.215Z,7.16
2018-01-05T09:06:24.074Z,7.19
2018-01-05T09:07:28.865Z,7.19
2018-01-05T09:08:34.244Z,7.27
2018-01-05T09:09:39.369Z,7.20
2018-01-05T09:10:44.106Z,7.14
2018-01-05T09:11:48.835Z,7.16
2018-01-05T09:12:53.537Z,7.14
2018-01-05T09:13:58.250Z,7.14
2018-01-05T09:15:03.036Z,7.18
2018-01-05T09:16:08.174Z,7.19
2018-01-05T09:17:13.154Z,7.21
2018-01-05T09:18:17.902Z,7.27
2018-01-05T09:19:22.682Z,7.17
2018-01-05T09:20:27.387Z,7.17
2018-01-05T09:21:32.113Z,7.25
2018-01-05T09:22:37.251Z,7.21
2018-01-05T09:23:42.000Z,7.21
2018-01-05T09:24:46.712Z,7.18
2018-01-05T09:25:51.419Z,7.22
2018-01-05T09:26:56.140Z,7.25
2018-01-05T09:28:00.832Z,7.20
2018-01-05T09:29:05.903Z,7.18
2018-01-05T09:30:10.640Z,7.21
2018-01-05T09:31:15.460Z,7.22
2018-01-05T09:32:20.221Z,7.21
2018-01-05T09:33:26.055Z,7.17
2018-01-05T09:34:31.664Z,7.17
2018-01-05T09:35:36.882Z,7.18
2018-01-05T09:36:41.618Z,7.17
2018-01-05T09:37:46.339Z,7.16
2018-01-05T09:38:50.981Z,7.19
2018-01-05T09:39:55.752Z,7.25
2018-01-05T09:41:00.446Z,7.18
2018-01-05T09:42:05.934Z,7.21
2018-01-05T09:43:10.595Z,7.19
2018-01-05T09:44:15.579Z,7.18
2018-01-05T09:45:20.235Z,7.16
2018-01-05T09:46:24.906Z,7.14
2018-01-05T09:47:29.567Z,7.17
2018-01-05T09:48:34.605Z,7.17
2018-01-05T09:49:39.282Z,7.17
2018-01-05T09:50:43.948Z,7.16
2018-01-05T09:51:48.682Z,7.15
2018-01-05T09:52:53.432Z,7.12
2018-01-05T09:53:58.124Z,7.18
2018-01-05T09:55:03.031Z,7.17
2018-01-05T09:56:07.624Z,7.13
2018-01-05T09:57:12.307Z,7.15
2018-01-05T09:58:17.093Z,7.19
2018-01-05T09:59:21.786Z,7.15
2018-01-05T10:00:26.470Z,7.16
2018-01-05T10:01:31.634Z,7.17
2018-01-05T10:02:38.298Z,7.20
2018-01-05T10:03:42.894Z,7.21
2018-01-05T10:04:47.654Z,7.24
2018-01-05T10:05:52.434Z,7.31
2018-01-05T10:06:57.640Z,7.26
2018-01-05T10:08:02.464Z,7.32
2018-01-05T10:09:07.085Z,7.34
2018-01-05T10:10:11.816Z,7.40
2018-01-05T10:11:16.537Z,7.44
2018-01-05T10:12:21.256Z,7.49
2018-01-05T10:13:25.838Z,7.57
2018-01-05T10:14:31.161Z,7.61
2018-01-05T10:15:36.034Z,7.66
2018-01-05T10:16:40.802Z,7.65
2018-01-05T10:17:45.637Z,7.59
2018-01-05T10:18:51.606Z,7.67
2018-01-05T10:19:56.448Z,7.66
2018-01-05T10:21:01.901Z,7.74
2018-01-05T10:22:06.765Z,7.72
2018-01-05T10:23:12.567Z,7.73
2018-01-05T10:24:17.346Z,7.78
2018-01-05T10:25:22.132Z,7.82
2018-01-05T10:26:26.933Z,7.80
2018-01-05T10:27:32.029Z,7.71
2018-01-05T10:28:36.887Z,7.79
2018-01-05T10:29:41.716Z,7.84
2018-01-05T10:30:46.559Z,7.84
2018-01-05T10:33:10.478Z,7.85
2018-01-05T10:34:15.458Z,7.87
2018-01-05T10:35:20.823Z,7.83
2018-01-05T10:36:25.569Z,7.92
2018-01-05T10:37:30.912Z,7.90
2018-01-05T10:38:35.674Z,7.78
2018-01-05T10:39:41.046Z,7.88
2018-01-05T10:40:46.170Z,7.91
2018-01-05T10:41:53.455Z,7.88
2018-01-05T10:42:58.167Z,7.77
2018-01-05T10:44:02.965Z,7.75
2018-01-05T10:45:07.652Z,7.78
2018-01-05T10:46:12.275Z,7.79
2018-01-05T10:47:17.606Z,7.77
2018-01-05T10:48:22.299Z,7.78
2018-01-05T10:49:27.027Z,7.79
2018-01-05T10:50:31.823Z,7.81
2018-01-05T10:51:36.860Z,7.77
2018-01-05T10:52:41.774Z,7.82
2018-01-05T10:53:46.891Z,7.86
2018-01-05T10:54:51.585Z,7.87
2018-01-05T10:55:56.492Z,7.94
2018-01-05T10:57:01.251Z,8.02
2018-01-05T10:58:05.975Z,8.05
2018-01-05T10:59:10.738Z,8.13
2018-01-05T11:00:15.675Z,8.13
2018-01-05T11:01:20.306Z,8.20
2018-01-05T11:02:25.005Z,8.34
2018-01-05T11:03:29.826Z,8.47
2018-01-05T11:04:35.574Z,8.46
2018-01-05T11:05:40.241Z,8.27
2018-01-05T11:06:45.209Z,8.20
2018-01-05T11:07:49.915Z,8.22
2018-01-05T11:08:55.580Z,8.31
2018-01-05T11:10:00.262Z,8.49
2018-01-05T11:11:04.917Z,8.69
2018-01-05T11:12:10.040Z,8.68
2018-01-05T11:13:14.785Z,8.48
2018-01-05T11:14:19.551Z,8.26
2018-01-05T11:15:24.303Z,8.32
2018-01-05T11:16:29.123Z,8.21
2018-01-05T11:17:34.827Z,8.14
2018-01-05T11:18:40.204Z,8.10
2018-01-05T11:19:45.278Z,8.10
2018-01-05T11:20:50.074Z,8.11
2018-01-05T11:21:54.890Z,8.20
2018-01-05T11:22:59.623Z,8.10
2018-01-05T11:24:04.416Z,8.05
2018-01-05T11:25:09.269Z,7.95
2018-01-05T11:26:14.307Z,8.04
2018-01-05T11:27:19.520Z,7.97
2018-01-05T11:28:24.243Z,7.98
2018-01-05T11:29:28.971Z,8.02
2018-01-05T11:30:34.165Z,7.96
2018-01-05T11:31:38.973Z,7.87
2018-01-05T11:32:44.009Z,7.83
2018-01-05T11:33:49.811Z,7.83
2018-01-05T11:34:54.610Z,7.85
2018-01-05T11:35:59.391Z,7.86
2018-01-05T11:37:04.126Z,7.95
2018-01-05T11:38:08.829Z,7.96
2018-01-05T11:39:14.360Z,7.93
2018-01-05T11:40:19.096Z,7.95
2018-01-05T11:41:23.884Z,7.91
2018-01-05T11:42:28.980Z,7.88
2018-01-05T11:43:34.161Z,7.91
2018-01-05T11:44:38.885Z,8.01
2018-01-05T11:45:44.112Z,8.08
2018-01-05T11:46:49.045Z,7.92
2018-01-05T11:47:53.891Z,7.95
2018-01-05T11:48:58.666Z,8.01
2018-01-05T11:50:03.435Z,7.96
2018-01-05T11:51:08.040Z,8.02
2018-01-05T11:52:13.172Z,7.94
2018-01-05T11:53:17.918Z,7.99
2018-01-05T11:54:22.650Z,7.95
2018-01-05T11:55:27.375Z,8.01
2018-01-05T11:56:32.070Z,7.97
2018-01-05T11:57:36.819Z,7.96
2018-01-05T11:58:41.820Z,7.96
2018-01-05T11:59:46.500Z,7.92
2018-01-05T12:00:51.218Z,7.91
2018-01-05T12:01:55.926Z,7.85
2018-01-05T12:03:00.848Z,7.85
2018-01-05T12:04:05.607Z,7.85
2018-01-05T12:05:10.366Z,7.84
2018-01-05T12:06:15.100Z,7.84
2018-01-05T12:07:19.839Z,7.82
2018-01-05T12:08:24.617Z,7.90
2018-01-05T12:09:29.247Z,7.91
2018-01-05T12:10:34.239Z,7.87
2018-01-05T12:11:39.028Z,7.87
2018-01-05T12:12:43.857Z,7.87
2018-01-05T12:13:49.696Z,7.81
2018-01-05T12:14:54.548Z,7.86
2018-01-05T12:15:59.417Z,7.90
2018-01-05T12:17:04.644Z,7.91
2018-01-05T12:18:09.530Z,7.91
2018-01-05T12:19:14.334Z,7.89
2018-01-05T12:20:19.158Z,7.92
2018-01-05T12:21:24.621Z,7.91
2018-01-05T12:22:29.423Z,7.89
2018-01-05T12:23:34.563Z,7.89
2018-01-05T12:24:39.350Z,7.91
2018-01-05T12:25:44.209Z,7.91
2018-01-05T12:26:49.027Z,7.92
2018-01-05T12:27:53.785Z,7.95
2018-01-05T12:28:58.525Z,7.86
2018-01-05T12:30:03.749Z,7.84
2018-01-05T12:31:08.566Z,7.86
2018-01-05T12:32:13.416Z,7.90
2018-01-05T12:33:18.190Z,7.92
2018-01-05T12:34:22.900Z,7.90
2018-01-05T12:35:27.617Z,7.89
2018-01-05T12:36:32.719Z,7.85
2018-01-05T12:37:37.369Z,7.87
2018-01-05T12:38:42.286Z,7.93
2018-01-05T12:39:47.033Z,7.97
2018-01-05T12:40:51.743Z,7.95
2018-01-05T12:41:56.426Z,7.93
2018-01-05T12:43:01.468Z,7.92
2018-01-05T12:44:06.165Z,7.89
2018-01-05T12:45:10.911Z,7.90
2018-01-05T12:46:15.644Z,7.88
2018-01-05T12:47:20.378Z,7.86
2018-01-05T12:48:25.245Z,7.85
2018-01-05T12:49:31.469Z,7.83
2018-01-05T12:50:36.249Z,7.84
2018-01-05T12:51:41.040Z,7.84
2018-01-05T12:52:45.822Z,7.84
2018-01-05T12:53:50.490Z,7.83
2018-01-05T12:54:55.208Z,7.82
2018-01-05T12:56:00.211Z,7.86
2018-01-05T12:57:04.754Z,7.85
2018-01-05T12:58:09.268Z,7.85
2018-01-05T12:59:13.822Z,7.89
2018-01-05T13:00:18.507Z,7.92
2018-01-05T13:01:23.337Z,7.91
2018-01-05T13:02:28.450Z,7.90
2018-01-05T13:03:33.208Z,7.92
2018-01-05T13:04:37.945Z,7.88
2018-01-05T13:05:42.646Z,7.88
2018-01-05T13:06:47.318Z,7.90
2018-01-05T13:07:52.476Z,7.87
2018-01-05T13:08:57.521Z,7.83
2018-01-05T13:10:02.435Z,7.84
2018-01-05T13:11:07.273Z,7.86
2018-01-05T13:12:12.450Z,7.87
2018-01-05T13:13:17.187Z,7.85
2018-01-05T13:14:22.207Z,7.86
2018-01-05T13:15:27.352Z,7.86
2018-01-05T13:16:32.119Z,7.82
2018-01-05T13:17:36.859Z,7.90
2018-01-05T13:18:41.635Z,7.93
2018-01-05T13:19:46.360Z,7.92
2018-01-05T13:20:51.059Z,7.92
2018-01-05T13:21:56.154Z,7.88
2018-01-05T13:23:01.076Z,7.87
2018-01-05T13:24:05.817Z,7.84
2018-01-05T13:25:10.553Z,7.85
2018-01-05T13:26:15.269Z,7.82
2018-01-05T13:27:19.953Z,7.77
2018-01-05T13:28:24.943Z,7.80
2018-01-05T13:29:29.672Z,7.78
2018-01-05T13:30:34.391Z,7.83
2018-01-05T13:31:39.256Z,7.79
2018-01-05T13:32:44.101Z,7.77
2018-01-05T13:33:48.836Z,7.80
2018-01-05T13:34:53.924Z,7.74
2018-01-05T13:35:58.644Z,7.72
2018-01-05T13:37:03.351Z,7.77
2018-01-05T13:38:08.081Z,7.81
2018-01-05T13:39:12.832Z,7.76
2018-01-05T13:40:17.624Z,7.73
2018-01-05T13:41:22.719Z,7.71
2018-01-05T13:42:27.520Z,7.72
2018-01-05T13:43:32.326Z,7.75
2018-01-05T13:44:38.601Z,7.74
2018-01-05T13:45:43.335Z,7.78
2018-01-05T13:46:48.457Z,7.74
2018-01-05T13:47:53.505Z,7.71
2018-01-05T13:48:58.275Z,7.73
2018-01-05T13:50:02.995Z,7.74
2018-01-05T13:51:07.755Z,7.69
2018-01-05T13:52:12.862Z,7.73
2018-01-05T13:53:17.498Z,7.72
2018-01-05T13:54:22.167Z,7.74
2018-01-05T13:55:26.844Z,7.72
2018-01-05T13:56:31.510Z,7.76
2018-01-05T13:57:36.459Z,7.73
2018-01-05T13:58:41.264Z,7.71
2018-01-05T13:59:46.563Z,7.73
2018-01-05T14:00:51.301Z,7.78
2018-01-05T14:01:56.215Z,7.75
2018-01-05T14:03:00.772Z,7.78
2018-01-05T14:04:05.377Z,7.77
2018-01-05T14:05:10.043Z,7.76
2018-01-05T14:06:15.047Z,7.75
2018-01-05T14:07:19.722Z,7.77
2018-01-05T14:08:24.550Z,7.80
2018-01-05T14:09:29.289Z,7.83
2018-01-05T14:10:34.083Z,7.92
2018-01-05T14:11:38.862Z,7.88
2018-01-05T14:12:43.894Z,7.91
2018-01-05T14:13:48.491Z,7.89
2018-01-05T14:14:53.363Z,7.90
2018-01-05T14:15:58.291Z,7.91
2018-01-05T14:17:03.052Z,7.86
2018-01-05T14:18:07.819Z,7.92
2018-01-05T14:19:12.821Z,7.92
2018-01-05T14:20:17.611Z,7.95
2018-01-05T14:21:22.336Z,7.92
2018-01-05T14:22:27.058Z,7.89
2018-01-05T14:23:31.803Z,7.90
2018-01-05T14:24:36.476Z,7.89